Time;durP1;ratioP1;P1;durP2;ratioP2;P2;SDS_P1;SDS_P2;PMS_P1;PMS_P2;Temp;Humidity;BMP_temperature;BMP_pressure;BME280_temperature;BME280_humidity;BME280_pressure;Samples;Min_cycle;Max_cycle;Signal;HPM_P1;HPM_P2
2020/12/20 00:00:11;;;;;;;18.90;16.05;;;6.90;99.90;;;;;;5063368;28;20519;-72
2020/12/20 00:02:38;;;;;;;18.80;15.35;;;6.90;99.90;;;;;;5063609;28;20410;-73
2020/12/20 00:05:05;;;;;;;18.73;15.82;;;6.90;99.90;;;;;;5047147;28;20139;-73
2020/12/20 00:07:32;;;;;;;19.45;16.42;;;6.90;99.90;;;;;;5029204;28;20063;-72
2020/12/20 00:09:58;;;;;;;17.48;15.57;;;6.90;99.90;;;;;;5063667;28;20052;-72
2020/12/20 00:12:25;;;;;;;20.80;16.40;;;6.90;99.90;;;;;;5046534;28;20045;-72
2020/12/20 00:14:51;;;;;;;17.95;16.05;;;7.00;99.90;;;;;;5047170;28;20126;-72
2020/12/20 00:17:18;;;;;;;17.67;15.80;;;6.90;99.90;;;;;;5060688;28;20090;-72
2020/12/20 00:19:44;;;;;;;21.00;16.55;;;6.90;99.90;;;;;;5040969;28;20366;-72
2020/12/20 00:22:13;;;;;;;20.10;16.35;;;6.90;99.90;;;;;;5062323;28;20134;-73
2020/12/20 00:24:42;;;;;;;17.48;15.55;;;7.00;99.90;;;;;;5063458;28;20130;-73
2020/12/20 00:27:11;;;;;;;17.40;15.18;;;6.90;99.90;;;;;;5062725;28;20067;-72
2020/12/20 00:29:39;;;;;;;17.55;14.98;;;7.00;99.90;;;;;;5043277;28;20115;-73
2020/12/20 00:32:07;;;;;;;18.38;16.38;;;6.90;99.90;;;;;;5043442;28;20063;-72
2020/12/20 00:34:34;;;;;;;18.17;16.38;;;6.90;99.90;;;;;;5026327;28;20056;-72
2020/12/20 00:37:01;;;;;;;19.42;17.23;;;7.00;99.90;;;;;;5026229;28;20094;-73
2020/12/20 00:39:27;;;;;;;17.45;15.43;;;7.00;99.90;;;;;;5053314;28;20045;-72
2020/12/20 00:42:01;;;;;;;25.20;17.05;;;7.00;99.90;;;;;;5046026;28;20166;-72
2020/12/20 00:44:28;;;;;;;20.83;16.40;;;6.90;99.90;;;;;;5030337;28;20063;-72
2020/12/20 00:46:56;;;;;;;19.60;17.10;;;7.00;99.90;;;;;;5061928;28;20056;-72
2020/12/20 00:49:23;;;;;;;21.00;17.45;;;6.90;99.90;;;;;;5038702;28;20052;-74
2020/12/20 00:51:52;;;;;;;19.52;17.10;;;6.90;99.90;;;;;;5062920;28;20075;-72
2020/12/20 00:54:19;;;;;;;18.98;16.95;;;6.90;99.90;;;;;;5046569;28;20053;-72
2020/12/20 00:56:46;;;;;;;19.15;16.10;;;6.80;99.90;;;;;;5019720;28;20041;-72
2020/12/20 00:59:13;;;;;;;19.58;16.50;;;6.70;99.90;;;;;;5063598;28;20071;-73
2020/12/20 01:01:40;;;;;;;20.77;17.30;;;6.70;99.90;;;;;;5044567;28;20057;-73
2020/12/20 01:04:07;;;;;;;24.30;18.17;;;6.70;99.90;;;;;;5063417;28;20060;-72
2020/12/20 01:06:34;;;;;;;20.58;18.38;;;6.70;99.90;;;;;;5062574;28;20460;-72
2020/12/20 01:09:16;;;;;;;20.38;18.27;;;6.60;99.90;;;;;;5031681;28;20564;-72
2020/12/20 01:11:43;;;;;;;19.38;16.67;;;6.60;99.90;;;;;;5062453;28;20048;-74
2020/12/20 01:14:10;;;;;;;19.75;17.67;;;6.60;99.90;;;;;;5029767;28;20052;-72
2020/12/20 01:16:42;;;;;;;20.42;17.75;;;6.60;99.90;;;;;;5045204;28;20041;-72
2020/12/20 01:19:08;;;;;;;19.25;17.15;;;6.50;99.90;;;;;;5038416;28;20072;-73
2020/12/20 01:21:35;;;;;;;23.70;19.23;;;6.40;99.90;;;;;;5045883;28;20593;-74
2020/12/20 01:24:02;;;;;;;20.85;17.90;;;6.30;99.90;;;;;;5046524;28;20052;-73
2020/12/20 01:26:29;;;;;;;19.58;17.40;;;6.30;99.90;;;;;;5045032;28;20058;-71
2020/12/20 01:28:56;;;;;;;21.25;18.42;;;6.30;99.90;;;;;;5046107;28;20059;-71
2020/12/20 01:31:23;;;;;;;22.15;19.40;;;6.30;99.90;;;;;;5045556;28;20125;-71
2020/12/20 01:34:05;;;;;;;21.65;18.13;;;6.30;99.90;;;;;;5046575;28;20053;-73
2020/12/20 01:36:32;;;;;;;21.23;17.25;;;6.20;99.90;;;;;;5045044;28;20098;-72
2020/12/20 01:39:02;;;;;;;22.80;18.80;;;6.20;99.90;;;;;;5042669;28;20473;-71
2020/12/20 01:41:29;;;;;;;21.20;18.55;;;6.10;99.90;;;;;;5026095;28;20077;-71
2020/12/20 01:43:56;;;;;;;20.45;17.55;;;6.10;99.90;;;;;;5030205;28;20048;-72
2020/12/20 01:46:42;;;;;;;19.77;17.65;;;6.10;99.90;;;;;;5056914;28;20139;-71
2020/12/20 01:49:11;;;;;;;21.02;18.20;;;6.10;99.90;;;;;;5047043;28;20738;-71
2020/12/20 01:51:38;;;;;;;21.70;19.02;;;6.10;99.90;;;;;;5065858;28;20132;-71
2020/12/20 01:54:10;;;;;;;22.50;19.55;;;6.10;99.90;;;;;;5066867;28;20505;-71
2020/12/20 01:56:38;;;;;;;23.70;19.30;;;6.10;99.90;;;;;;5029360;28;20049;-74
2020/12/20 01:59:13;;;;;;;28.05;20.42;;;6.00;99.90;;;;;;5062971;28;20061;-72
2020/12/20 02:01:46;;;;;;;21.65;18.52;;;6.00;99.90;;;;;;5028940;28;20068;-72
2020/12/20 02:04:51;;;;;;;21.65;18.38;;;6.00;99.90;;;;;;5051016;28;20057;-72
2020/12/20 02:07:18;;;;;;;24.10;19.50;;;5.80;99.90;;;;;;5046657;28;20063;-72
2020/12/20 02:09:48;;;;;;;27.10;20.83;;;5.80;99.90;;;;;;5028977;28;20156;-72
2020/12/20 02:12:17;;;;;;;23.02;19.92;;;5.80;99.90;;;;;;5045606;28;20064;-72
2020/12/20 02:15:01;;;;;;;23.27;19.20;;;5.70;99.90;;;;;;5029262;28;20053;-71
2020/12/20 02:17:28;;;;;;;26.17;20.00;;;5.70;99.90;;;;;;5044813;28;20052;-72
2020/12/20 02:20:00;;;;;;;22.55;19.10;;;5.70;99.90;;;;;;5065473;28;20063;-71
2020/12/20 02:22:46;;;;;;;25.70;20.20;;;5.70;99.90;;;;;;5067140;28;20056;-72
2020/12/20 02:25:13;;;;;;;26.02;19.90;;;5.70;99.90;;;;;;5048662;28;20056;-72
2020/12/20 02:27:56;;;;;;;23.35;18.90;;;5.70;99.90;;;;;;5041634;28;20049;-72
2020/12/20 02:30:26;;;;;;;24.70;20.17;;;5.80;99.90;;;;;;5052546;28;20058;-72
2020/12/20 02:32:53;;;;;;;24.02;19.55;;;5.70;99.90;;;;;;5054666;28;20056;-72
2020/12/20 02:35:26;;;;;;;24.90;20.10;;;5.80;99.90;;;;;;5063902;28;20400;-72
2020/12/20 02:37:53;;;;;;;26.20;19.35;;;5.80;99.90;;;;;;5047651;28;20079;-72
2020/12/20 02:40:20;;;;;;;24.77;19.83;;;5.80;99.90;;;;;;5039042;28;20044;-72
2020/12/20 02:42:55;;;;;;;27.33;21.80;;;5.90;99.90;;;;;;5061881;28;20394;-72
2020/12/20 02:45:22;;;;;;;27.25;21.52;;;5.90;99.90;;;;;;5031947;28;20057;-73
2020/12/20 02:47:50;;;;;;;24.70;20.73;;;5.90;99.90;;;;;;5025590;28;20052;-72
2020/12/20 02:50:34;;;;;;;26.77;20.63;;;5.90;99.90;;;;;;5027828;28;20130;-72
2020/12/20 02:53:01;;;;;;;23.10;19.80;;;5.90;99.90;;;;;;5028396;28;20156;-72
2020/12/20 02:55:29;;;;;;;27.73;19.85;;;6.00;99.90;;;;;;5032538;28;20037;-72
2020/12/20 02:58:06;;;;;;;24.98;21.10;;;6.00;99.90;;;;;;5044792;28;20060;-72
2020/12/20 03:00:50;;;;;;;28.40;20.85;;;6.00;99.90;;;;;;5027442;28;20045;-72
2020/12/20 03:03:18;;;;;;;23.95;19.33;;;6.10;99.90;;;;;;5044433;28;20087;-73
2020/12/20 03:05:48;;;;;;;21.40;18.23;;;6.10;99.90;;;;;;5027961;28;20600;-72
2020/12/20 03:08:14;;;;;;;22.48;18.63;;;6.20;99.90;;;;;;5063971;28;20049;-72
2020/12/20 03:10:42;;;;;;;24.00;18.05;;;6.20;99.90;;;;;;5064419;28;20045;-72
2020/12/20 03:13:09;;;;;;;25.67;18.73;;;6.30;99.90;;;;;;5064850;28;20052;-73
2020/12/20 03:15:38;;;;;;;21.85;17.60;;;6.30;99.90;;;;;;5047183;28;20108;-73
2020/12/20 03:18:04;;;;;;;22.73;17.88;;;6.30;99.90;;;;;;5038226;28;20053;-72
2020/12/20 03:20:50;;;;;;;23.40;19.27;;;6.40;99.90;;;;;;5047493;28;20045;-72
2020/12/20 03:23:17;;;;;;;23.00;19.38;;;6.40;99.90;;;;;;5081114;28;20060;-72
2020/12/20 03:26:04;;;;;;;24.23;19.60;;;6.50;99.90;;;;;;5043448;28;20140;-72
2020/12/20 03:28:47;;;;;;;24.52;20.45;;;6.40;99.90;;;;;;5043315;28;20543;-72
2020/12/20 03:31:34;;;;;;;22.40;19.15;;;6.40;99.90;;;;;;5063640;28;20057;-72
2020/12/20 03:34:18;;;;;;;25.35;19.63;;;6.40;99.90;;;;;;5049537;28;20048;-72
2020/12/20 03:36:53;;;;;;;26.15;20.83;;;6.40;99.90;;;;;;5063209;28;20051;-72
2020/12/20 03:39:22;;;;;;;25.63;20.65;;;6.40;99.90;;;;;;5047968;28;20117;-72
2020/12/20 03:41:49;;;;;;;26.35;19.58;;;6.40;99.90;;;;;;5046461;28;20054;-72
2020/12/20 03:44:21;;;;;;;22.67;18.92;;;6.40;99.90;;;;;;5064296;28;20088;-72
2020/12/20 03:46:48;;;;;;;26.75;21.00;;;6.40;99.90;;;;;;5042819;28;20678;-71
2020/12/20 03:49:16;;;;;;;24.60;21.52;;;6.40;99.90;;;;;;5043117;28;20455;-72
2020/12/20 03:51:43;;;;;;;25.58;19.88;;;6.30;99.90;;;;;;5063655;28;20045;-72
2020/12/20 03:54:10;;;;;;;26.25;20.75;;;6.40;99.90;;;;;;5063827;28;20152;-72
2020/12/20 03:56:38;;;;;;;22.63;20.23;;;6.40;99.90;;;;;;5050295;28;20113;-72
2020/12/20 03:59:13;;;;;;;29.55;21.05;;;6.40;99.90;;;;;;5045438;28;20125;-72
2020/12/20 04:01:40;;;;;;;25.75;20.20;;;6.50;99.90;;;;;;5029152;28;20549;-72
2020/12/20 04:04:07;;;;;;;27.42;21.52;;;6.50;99.90;;;;;;5047450;28;20056;-72
2020/12/20 04:06:33;;;;;;;29.48;22.88;;;6.50;99.90;;;;;;5062599;28;20058;-72
2020/12/20 04:09:00;;;;;;;25.65;21.27;;;6.50;99.90;;;;;;5030807;28;20143;-72
2020/12/20 04:11:51;;;;;;;26.38;22.10;;;6.50;99.90;;;;;;5062883;28;20049;-72
2020/12/20 04:14:20;;;;;;;26.83;22.33;;;6.50;99.90;;;;;;5046512;28;20048;-72
2020/12/20 04:16:47;;;;;;;29.48;21.40;;;6.30;99.90;;;;;;5064063;28;20129;-72
2020/12/20 04:19:15;;;;;;;28.08;22.13;;;6.30;99.90;;;;;;5038480;28;20074;-73
2020/12/20 04:21:47;;;;;;;26.27;21.70;;;6.20;99.90;;;;;;5062458;28;20157;-72
2020/12/20 04:24:34;;;;;;;27.63;22.75;;;6.20;99.90;;;;;;5062792;28;20301;-72
2020/12/20 04:27:00;;;;;;;28.67;22.73;;;6.10;99.90;;;;;;5062089;28;20047;-72
2020/12/20 04:29:35;;;;;;;27.55;22.67;;;6.10;99.90;;;;;;5042913;28;20524;-73
2020/12/20 04:32:03;;;;;;;31.52;25.05;;;6.10;99.90;;;;;;5044023;28;20072;-73
2020/12/20 04:34:32;;;;;;;29.48;24.25;;;6.10;99.90;;;;;;5044014;28;20080;-73
2020/12/20 04:36:58;;;;;;;31.30;26.05;;;6.00;99.90;;;;;;5062141;28;20053;-73
2020/12/20 04:39:42;;;;;;;30.55;24.08;;;6.00;99.90;;;;;;5057092;28;20052;-73
2020/12/20 04:42:10;;;;;;;34.45;26.02;;;6.00;99.90;;;;;;5045954;28;20048;-74
2020/12/20 04:44:37;;;;;;;31.83;26.05;;;6.00;99.90;;;;;;5035215;28;20118;-74
2020/12/20 04:47:06;;;;;;;35.78;26.00;;;6.00;99.90;;;;;;5059103;28;20580;-73
2020/12/20 04:49:44;;;;;;;30.70;24.98;;;6.10;99.90;;;;;;5040426;28;20053;-73
2020/12/20 04:52:17;;;;;;;29.70;24.63;;;6.10;99.90;;;;;;5047493;28;20558;-73
2020/12/20 04:54:46;;;;;;;32.42;25.02;;;6.00;99.90;;;;;;5047135;28;20048;-73
2020/12/20 04:57:27;;;;;;;31.67;24.67;;;6.00;99.90;;;;;;5045480;28;20059;-73
2020/12/20 04:59:55;;;;;;;30.90;25.08;;;6.00;99.90;;;;;;5062809;28;20152;-73
2020/12/20 05:02:21;;;;;;;33.22;26.70;;;5.90;99.90;;;;;;5046052;28;20044;-72
2020/12/20 05:04:48;;;;;;;34.63;25.83;;;6.00;99.90;;;;;;5063369;28;20171;-73
2020/12/20 05:07:17;;;;;;;31.17;24.45;;;5.90;99.90;;;;;;5061928;28;20123;-73
2020/12/20 05:09:50;;;;;;;31.58;26.40;;;5.80;99.90;;;;;;5063509;28;20476;-73
2020/12/20 05:12:29;;;;;;;36.47;27.20;;;5.90;99.90;;;;;;5045005;28;20056;-72
2020/12/20 05:15:19;;;;;;;33.42;25.92;;;5.80;99.90;;;;;;5046714;28;20123;-73
2020/12/20 05:18:07;;;;;;;31.23;23.88;;;5.80;99.90;;;;;;5058019;28;20490;-73
2020/12/20 05:20:41;;;;;;;36.22;26.23;;;5.80;99.90;;;;;;5044920;28;20049;-73
2020/12/20 05:23:13;;;;;;;32.90;25.77;;;5.80;99.90;;;;;;5030535;28;20144;-73
2020/12/20 05:25:41;;;;;;;33.40;26.55;;;5.80;99.90;;;;;;5029002;28;20045;-73
2020/12/20 05:28:19;;;;;;;31.23;25.92;;;5.80;99.90;;;;;;5037433;28;20105;-73
2020/12/20 05:30:53;;;;;;;34.58;27.38;;;5.80;99.90;;;;;;5049275;28;20127;-73
2020/12/20 05:33:33;;;;;;;33.03;26.38;;;5.80;99.90;;;;;;5066976;28;20635;-73
2020/12/20 05:36:24;;;;;;;34.15;27.02;;;5.80;99.90;;;;;;5065990;28;20515;-73
2020/12/20 05:39:17;;;;;;;39.42;28.05;;;5.80;99.90;;;;;;5050118;28;20566;-73
2020/12/20 05:41:52;;;;;;;35.88;27.15;;;5.80;99.90;;;;;;5049194;28;20529;-73
2020/12/20 05:44:23;;;;;;;35.97;26.80;;;5.80;99.90;;;;;;5050672;28;20532;-72
2020/12/20 05:46:54;;;;;;;36.40;26.83;;;5.80;99.90;;;;;;5029229;28;20071;-72
2020/12/20 05:49:23;;;;;;;35.45;27.45;;;5.90;99.90;;;;;;5054985;28;20127;-72
2020/12/20 05:52:02;;;;;;;39.75;26.75;;;5.90;99.90;;;;;;5064071;28;20075;-72
2020/12/20 05:54:36;;;;;;;35.08;26.55;;;5.90;99.90;;;;;;5066864;28;20485;-72
2020/12/20 05:57:14;;;;;;;37.23;26.57;;;5.80;99.90;;;;;;5049096;28;20059;-72
2020/12/20 05:59:45;;;;;;;34.47;25.35;;;5.80;99.90;;;;;;5049922;28;20053;-72
2020/12/20 06:02:12;;;;;;;39.05;28.27;;;5.80;99.90;;;;;;5049028;28;20123;-73
2020/12/20 06:04:39;;;;;;;36.10;26.85;;;5.90;99.90;;;;;;5049234;28;20059;-72
2020/12/20 06:07:07;;;;;;;36.55;26.63;;;5.90;99.90;;;;;;5065353;28;20511;-73
2020/12/20 06:09:52;;;;;;;35.40;25.88;;;5.80;99.90;;;;;;5033109;28;20066;-73
2020/12/20 06:12:23;;;;;;;34.20;25.27;;;5.90;99.90;;;;;;5065444;28;20059;-73
2020/12/20 06:14:50;;;;;;;36.63;25.00;;;5.80;99.90;;;;;;5065724;28;20131;-72
2020/12/20 06:17:26;;;;;;;35.17;23.60;;;5.80;99.90;;;;;;5064551;28;20055;-72
2020/12/20 06:20:00;;;;;;;39.38;24.67;;;5.80;99.90;;;;;;5060839;28;20078;-72
2020/12/20 06:22:52;;;;;;;31.65;23.52;;;5.90;99.90;;;;;;5049104;28;20056;-72
2020/12/20 06:25:26;;;;;;;34.63;24.50;;;5.80;99.90;;;;;;5032456;28;20121;-73
2020/12/20 06:28:00;;;;;;;36.08;23.17;;;5.90;99.90;;;;;;5065854;28;20052;-73
2020/12/20 06:30:27;;;;;;;33.03;23.53;;;5.80;99.90;;;;;;5065628;28;20054;-73
2020/12/20 06:33:00;;;;;;;36.15;24.80;;;5.80;99.90;;;;;;5065925;28;20107;-73
2020/12/20 06:35:28;;;;;;;37.67;24.48;;;5.90;99.90;;;;;;5064523;28;20493;-73
2020/12/20 06:37:56;;;;;;;35.17;26.38;;;5.90;99.90;;;;;;5065309;28;20037;-73
2020/12/20 06:40:31;;;;;;;35.53;23.40;;;5.90;99.90;;;;;;5066434;28;20048;-73
2020/12/20 06:42:58;;;;;;;;;;;5.90;99.90;;;;;;5047700;28;20060;-73
2020/12/20 06:45:27;;;;;;;37.42;24.65;;;5.90;99.90;;;;;;5044636;28;19921;-72
2020/12/20 06:48:00;;;;;;;38.25;25.52;;;5.90;99.90;;;;;;5058190;28;20139;-73
2020/12/20 06:50:39;;;;;;;42.33;27.48;;;5.80;99.90;;;;;;5048627;28;20055;-72
2020/12/20 06:53:07;;;;;;;38.55;24.40;;;5.80;99.90;;;;;;5066866;28;20048;-73
2020/12/20 06:55:34;;;;;;;38.85;25.67;;;5.80;99.90;;;;;;5060646;28;20044;-72
2020/12/20 06:58:03;;;;;;;43.60;26.77;;;5.80;99.90;;;;;;5045158;28;20845;-72
2020/12/20 07:00:54;;;;;;;43.92;28.40;;;5.80;99.90;;;;;;5044841;28;20486;-72
2020/12/20 07:03:23;;;;;;;42.15;26.85;;;5.90;99.90;;;;;;5050951;28;20071;-73
2020/12/20 07:05:54;;;;;;;46.90;29.67;;;5.90;99.90;;;;;;5053941;28;20555;-72
2020/12/20 07:08:26;;;;;;;45.22;28.88;;;5.80;99.90;;;;;;5046422;28;20269;-72
2020/12/20 07:10:54;;;;;;;46.50;28.30;;;5.70;99.90;;;;;;5063901;28;20045;-72
2020/12/20 07:13:36;;;;;;;43.67;28.98;;;5.70;99.90;;;;;;5065496;28;20040;-72
2020/12/20 07:16:17;;;;;;;42.58;29.05;;;5.70;99.90;;;;;;5064678;28;20139;-72
2020/12/20 07:18:56;;;;;;;44.63;28.67;;;5.60;99.90;;;;;;5031670;28;20133;-72
2020/12/20 07:21:22;;;;;;;36.45;22.85;;;5.60;99.90;;;;;;5063398;28;20069;-72
2020/12/20 07:23:54;;;;;;;38.65;24.98;;;5.50;99.90;;;;;;5065810;28;20053;-72
2020/12/20 07:26:21;;;;;;;35.95;23.02;;;5.50;99.90;;;;;;5046320;28;20050;-71
2020/12/20 07:28:47;;;;;;;35.67;24.10;;;5.50;99.90;;;;;;5063864;28;20052;-72
2020/12/20 07:31:15;;;;;;;38.97;24.73;;;5.50;99.90;;;;;;5046364;28;20120;-73
2020/12/20 07:33:42;;;;;;;34.25;21.30;;;5.40;99.90;;;;;;5063401;28;20048;-73
2020/12/20 07:36:09;;;;;;;37.60;24.35;;;5.40;99.90;;;;;;5021344;28;20052;-72
2020/12/20 07:38:35;;;;;;;33.10;22.25;;;5.40;99.90;;;;;;5061725;28;20044;-72
2020/12/20 07:41:06;;;;;;;36.28;23.55;;;5.40;99.90;;;;;;5024992;28;20102;-72
2020/12/20 07:43:33;;;;;;;40.45;23.23;;;5.40;99.90;;;;;;5051544;28;20051;-72
2020/12/20 07:46:04;;;;;;;39.20;22.40;;;5.40;99.90;;;;;;5062950;28;20052;-72
2020/12/20 07:48:30;;;;;;;39.40;25.48;;;5.40;99.90;;;;;;5053577;28;20044;-72
2020/12/20 07:51:21;;;;;;;38.40;24.08;;;5.40;99.90;;;;;;5043288;28;20045;-72
2020/12/20 07:53:51;;;;;;;35.35;22.13;;;5.40;99.90;;;;;;5044086;28;20045;-72
2020/12/20 07:56:40;;;;;;;34.60;22.63;;;5.50;99.90;;;;;;5049052;28;20048;-73
2020/12/20 07:59:12;;;;;;;39.85;24.50;;;5.40;99.90;;;;;;5053799;28;20048;-73
2020/12/20 08:01:40;;;;;;;38.03;23.25;;;5.40;99.90;;;;;;5061656;28;20151;-73
2020/12/20 08:04:21;;;;;;;36.03;21.85;;;5.40;99.90;;;;;;5037796;28;20045;-73
2020/12/20 08:06:49;;;;;;;36.35;21.67;;;5.40;99.90;;;;;;5044547;28;20580;-74
2020/12/20 08:09:24;;;;;;;37.88;22.20;;;5.40;99.90;;;;;;5062957;28;20485;-74
2020/12/20 08:11:52;;;;;;;37.05;22.55;;;5.40;99.90;;;;;;5036934;28;20856;-74
2020/12/20 08:14:22;;;;;;;37.42;21.58;;;5.50;99.90;;;;;;5063361;28;20044;-74
2020/12/20 08:16:50;;;;;;;36.78;21.65;;;5.50;99.90;;;;;;5061728;28;20049;-74
2020/12/20 08:19:31;;;;;;;35.03;22.55;;;5.50;99.90;;;;;;5062655;28;20091;-73
2020/12/20 08:22:11;;;;;;;35.05;22.33;;;5.50;99.90;;;;;;5062189;28;20513;-73
2020/12/20 08:24:43;;;;;;;37.92;23.52;;;5.50;99.90;;;;;;5065304;28;20509;-73
2020/12/20 08:27:15;;;;;;;33.65;22.27;;;5.60;99.90;;;;;;5045907;28;20045;-73
2020/12/20 08:29:47;;;;;;;33.40;21.77;;;5.60;99.90;;;;;;5043262;28;20084;-74
2020/12/20 08:32:16;;;;;;;32.90;21.25;;;5.60;99.90;;;;;;5021958;28;20049;-73
2020/12/20 08:34:43;;;;;;;33.50;20.02;;;5.50;99.90;;;;;;5045722;28;20064;-73
2020/12/20 08:37:24;;;;;;;32.65;20.98;;;5.50;99.90;;;;;;5063455;28;20283;-73
2020/12/20 08:39:51;;;;;;;35.92;21.27;;;5.50;99.90;;;;;;5047169;28;20102;-73
2020/12/20 08:42:19;;;;;;;31.15;20.58;;;5.50;99.90;;;;;;5064151;28;20531;-73
2020/12/20 08:44:48;;;;;;;30.10;20.42;;;5.50;99.90;;;;;;5063652;28;20049;-73
2020/12/20 08:47:17;;;;;;;34.50;21.70;;;5.50;99.90;;;;;;5060427;28;20132;-73
2020/12/20 08:49:58;;;;;;;35.53;22.15;;;5.60;99.90;;;;;;5056939;28;20044;-74
2020/12/20 08:52:30;;;;;;;36.70;21.63;;;5.60;99.90;;;;;;5024388;28;20079;-73
2020/12/20 08:54:58;;;;;;;31.88;20.90;;;5.80;99.90;;;;;;5058988;28;20056;-73
2020/12/20 08:57:26;;;;;;;35.38;22.25;;;5.80;99.90;;;;;;5061869;28;20046;-73
2020/12/20 08:59:52;;;;;;;36.92;22.55;;;5.80;99.90;;;;;;5046385;28;20044;-73
2020/12/20 09:02:24;;;;;;;39.85;22.23;;;5.80;99.90;;;;;;5045881;28;20059;-73
2020/12/20 09:05:06;;;;;;;39.28;23.30;;;5.80;99.90;;;;;;5062774;28;20048;-74
2020/12/20 09:07:44;;;;;;;36.88;21.85;;;5.80;99.90;;;;;;5045289;28;20499;-73
2020/12/20 09:10:19;;;;;;;40.78;22.83;;;5.70;99.90;;;;;;5045934;28;20063;-73
2020/12/20 09:12:59;;;;;;;36.60;22.00;;;5.60;99.90;;;;;;5062669;28;20128;-72
2020/12/20 09:15:28;;;;;;;37.50;21.35;;;5.60;99.90;;;;;;5063737;28;20223;-73
2020/12/20 09:17:57;;;;;;;37.83;23.48;;;5.60;99.90;;;;;;5046070;28;20135;-73
2020/12/20 09:20:27;;;;;;;35.75;22.80;;;5.60;99.90;;;;;;5062754;28;20526;-73
2020/12/20 09:23:00;;;;;;;36.95;22.73;;;5.60;99.90;;;;;;5056234;28;20084;-73
2020/12/20 09:25:39;;;;;;;37.13;22.33;;;5.60;99.90;;;;;;5078717;28;20398;-73
2020/12/20 09:28:08;;;;;;;37.17;22.52;;;5.60;99.90;;;;;;5055073;28;20067;-73
2020/12/20 09:30:44;;;;;;;36.40;21.58;;;5.60;99.90;;;;;;5063179;28;20045;-73
2020/12/20 09:33:22;;;;;;;35.15;22.20;;;5.60;99.90;;;;;;5062886;28;20064;-73
2020/12/20 09:36:02;;;;;;;33.75;22.25;;;5.60;99.90;;;;;;5045290;28;20048;-74
2020/12/20 09:38:43;;;;;;;34.10;21.92;;;5.60;99.90;;;;;;5064573;28;20116;-72
2020/12/20 09:41:13;;;;;;;38.05;22.55;;;5.70;99.90;;;;;;5062275;28;20048;-72
2020/12/20 09:43:41;;;;;;;30.13;21.00;;;5.80;99.90;;;;;;5056406;28;20157;-72
2020/12/20 09:46:09;;;;;;;37.75;23.17;;;5.80;99.90;;;;;;5049782;28;20055;-73
2020/12/20 09:48:35;;;;;;;36.83;23.27;;;5.80;99.90;;;;;;5051381;28;20064;-73
2020/12/20 09:51:02;;;;;;;36.00;21.35;;;5.90;99.90;;;;;;5056479;28;20131;-73
2020/12/20 09:53:29;;;;;;;35.80;22.50;;;5.90;99.90;;;;;;5035871;28;20517;-72
2020/12/20 09:55:56;;;;;;;36.03;22.75;;;5.90;99.90;;;;;;5042286;28;20562;-72
2020/12/20 09:58:22;;;;;;;32.90;22.23;;;5.90;99.90;;;;;;5050786;28;20145;-72
2020/12/20 10:00:48;;;;;;;32.47;21.40;;;5.90;99.90;;;;;;5054984;28;20044;-72
2020/12/20 10:03:15;;;;;;;34.25;22.33;;;5.90;99.90;;;;;;5055765;28;20044;-72
2020/12/20 10:05:42;;;;;;;34.85;22.77;;;5.90;99.90;;;;;;5057608;28;20505;-72
2020/12/20 10:08:11;;;;;;;34.17;22.40;;;5.90;99.90;;;;;;5046115;28;20051;-72
2020/12/20 10:10:37;;;;;;;33.28;22.85;;;5.90;99.90;;;;;;5054851;28;20064;-72
2020/12/20 10:13:04;;;;;;;33.63;22.50;;;6.00;99.90;;;;;;5060888;28;20066;-72
2020/12/20 10:15:31;;;;;;;37.42;23.10;;;6.00;99.90;;;;;;5061559;28;20528;-73
2020/12/20 10:18:01;;;;;;;38.28;22.30;;;6.10;99.90;;;;;;5040342;28;20147;-73
2020/12/20 10:20:31;;;;;;;35.08;22.27;;;6.10;99.90;;;;;;5048067;28;20044;-73
2020/12/20 10:22:58;;;;;;;35.10;22.80;;;6.10;99.90;;;;;;5060180;28;20517;-72
2020/12/20 10:25:25;;;;;;;35.08;23.15;;;6.20;99.90;;;;;;5068646;28;20040;-73
2020/12/20 10:27:53;;;;;;;37.15;23.25;;;6.10;99.90;;;;;;5064262;28;20067;-73
2020/12/20 10:30:20;;;;;;;37.42;24.98;;;6.10;99.90;;;;;;5066155;28;20781;-72
2020/12/20 10:32:47;;;;;;;36.92;24.30;;;6.10;99.90;;;;;;5048565;28;20461;-73
2020/12/20 10:35:15;;;;;;;39.28;25.25;;;6.10;99.90;;;;;;5064523;28;20040;-74
2020/12/20 10:37:41;;;;;;;37.63;23.85;;;6.20;99.90;;;;;;5048107;28;20418;-72
2020/12/20 10:40:07;;;;;;;37.55;27.55;;;6.20;99.90;;;;;;5047273;28;20582;-73
2020/12/20 10:42:34;;;;;;;35.28;24.00;;;6.20;99.90;;;;;;5046950;28;20044;-72
2020/12/20 10:45:00;;;;;;;38.63;26.05;;;6.20;99.90;;;;;;5047752;28;20052;-72
2020/12/20 10:47:27;;;;;;;39.53;27.67;;;6.20;99.90;;;;;;5031425;28;20052;-72
2020/12/20 10:49:53;;;;;;;39.03;26.45;;;6.30;99.90;;;;;;5065482;28;20037;-72
2020/12/20 10:52:20;;;;;;;32.10;22.50;;;6.30;99.90;;;;;;5063280;28;20074;-72
2020/12/20 10:54:46;;;;;;;38.40;26.05;;;6.40;99.90;;;;;;5059045;28;20102;-75
2020/12/20 10:57:12;;;;;;;38.40;26.27;;;6.50;99.90;;;;;;5064913;28;20055;-72
2020/12/20 10:59:39;;;;;;;39.08;27.17;;;6.50;99.90;;;;;;5047370;28;20824;-72
2020/12/20 11:02:06;;;;;;;35.55;23.90;;;6.60;99.90;;;;;;5047239;28;20053;-72
2020/12/20 11:04:32;;;;;;;30.05;24.10;;;6.70;99.90;;;;;;5066586;28;20067;-72
2020/12/20 11:06:59;;;;;;;29.05;21.40;;;6.70;99.90;;;;;;5045827;28;20049;-72
2020/12/20 11:09:25;;;;;;;31.83;22.35;;;6.70;99.90;;;;;;5047898;28;20109;-72
2020/12/20 11:11:53;;;;;;;33.72;22.42;;;6.70;99.90;;;;;;5046357;28;20120;-72
2020/12/20 11:14:20;;;;;;;31.73;21.05;;;6.80;99.90;;;;;;5046533;28;20132;-72
2020/12/20 11:16:54;;;;;;;29.45;21.02;;;6.70;99.90;;;;;;5062865;28;20429;-72
2020/12/20 11:19:20;;;;;;;33.03;22.63;;;6.60;99.90;;;;;;5064359;28;20354;-72
2020/12/20 11:21:51;;;;;;;34.05;23.45;;;6.50;99.90;;;;;;5062352;28;20131;-72
2020/12/20 11:24:19;;;;;;;31.42;20.98;;;6.50;99.90;;;;;;5057144;28;20052;-72
2020/12/20 11:26:47;;;;;;;33.92;24.27;;;6.50;99.90;;;;;;5064690;28;20247;-72
2020/12/20 11:29:14;;;;;;;27.77;20.15;;;6.60;99.90;;;;;;5043960;28;20124;-72
2020/12/20 11:31:42;;;;;;;26.17;18.80;;;6.60;99.90;;;;;;5064647;28;20048;-72
2020/12/20 11:34:09;;;;;;;29.65;20.95;;;6.70;99.90;;;;;;5051221;28;20044;-72
2020/12/20 11:36:36;;;;;;;33.80;22.95;;;6.70;99.90;;;;;;5063310;28;20052;-72
2020/12/20 11:39:05;;;;;;;29.08;20.35;;;6.70;99.90;;;;;;5065541;28;20048;-71
2020/12/20 11:41:31;;;;;;;26.33;19.67;;;6.70;99.90;;;;;;5063438;28;20643;-72
2020/12/20 11:43:58;;;;;;;29.00;20.63;;;6.70;99.90;;;;;;5047122;28;20044;-72
2020/12/20 11:46:25;;;;;;;26.42;19.35;;;6.70;99.90;;;;;;5029375;28;20140;-72
2020/12/20 11:48:52;;;;;;;29.13;19.48;;;6.70;99.90;;;;;;5063702;28;20044;-72
2020/12/20 11:51:19;;;;;;;27.70;20.45;;;6.80;99.90;;;;;;5062770;28;20055;-72
2020/12/20 11:53:46;;;;;;;26.00;18.65;;;6.80;99.90;;;;;;5046226;28;20128;-72
2020/12/20 11:56:16;;;;;;;28.73;20.08;;;6.70;99.90;;;;;;5045860;28;20139;-73
2020/12/20 11:58:44;;;;;;;25.52;18.88;;;6.70;99.90;;;;;;5064163;28;20047;-72
2020/12/20 12:01:10;;;;;;;27.10;19.50;;;6.80;99.90;;;;;;5063656;28;20059;-72
2020/12/20 12:03:37;;;;;;;30.20;21.13;;;6.80;99.90;;;;;;5041424;28;20057;-72
2020/12/20 12:06:06;;;;;;;28.65;20.38;;;6.80;99.90;;;;;;5058907;28;20051;-72
2020/12/20 12:08:33;;;;;;;26.52;20.25;;;6.80;99.90;;;;;;5063373;28;20076;-73
2020/12/20 12:10:59;;;;;;;31.08;21.38;;;6.80;99.90;;;;;;5046019;28;20127;-72
2020/12/20 12:13:26;;;;;;;29.08;20.27;;;6.90;99.90;;;;;;5063455;28;20044;-73
2020/12/20 12:15:52;;;;;;;25.85;18.05;;;6.90;99.90;;;;;;5046482;28;20045;-71
2020/12/20 12:18:18;;;;;;;31.08;21.35;;;6.90;99.90;;;;;;5039136;28;20130;-71
2020/12/20 12:20:45;;;;;;;28.67;21.02;;;6.90;99.90;;;;;;5051626;28;20064;-72
2020/12/20 12:23:11;;;;;;;31.60;20.65;;;6.90;99.90;;;;;;5050817;28;20561;-72
2020/12/20 12:25:38;;;;;;;30.25;20.25;;;7.00;99.90;;;;;;5039985;28;20125;-72
2020/12/20 12:28:04;;;;;;;34.63;21.48;;;7.00;99.90;;;;;;5054248;28;20045;-71
2020/12/20 12:30:31;;;;;;;29.92;21.52;;;7.10;99.90;;;;;;5051174;28;20156;-71
2020/12/20 12:32:57;;;;;;;26.77;20.42;;;7.00;99.90;;;;;;5051113;28;20048;-72
2020/12/20 12:35:24;;;;;;;27.25;20.60;;;6.90;99.90;;;;;;5055231;28;20119;-71
2020/12/20 12:37:51;;;;;;;39.53;26.23;;;6.90;99.90;;;;;;5040493;28;20147;-72
2020/12/20 12:40:20;;;;;;;33.58;23.08;;;7.00;99.90;;;;;;5053161;28;20127;-72
2020/12/20 12:42:47;;;;;;;31.65;23.42;;;6.90;99.90;;;;;;5062267;28;20155;-72
2020/12/20 12:45:14;;;;;;;34.47;24.77;;;7.00;99.90;;;;;;5038805;28;20707;-72
2020/12/20 12:47:42;;;;;;;29.65;22.02;;;7.10;99.90;;;;;;5063560;28;20135;-72
2020/12/20 12:50:09;;;;;;;29.85;20.42;;;7.20;99.90;;;;;;5063063;28;20125;-72
2020/12/20 12:52:35;;;;;;;27.88;20.25;;;7.20;99.90;;;;;;5036528;28;20098;-72
2020/12/20 12:55:02;;;;;;;29.08;20.95;;;7.10;99.90;;;;;;5047290;28;20067;-72